createdAt,value
2022-12-17T09:16:00.193Z,9.95
2022-12-17T09:18:46.098Z,11.27
2022-12-17T09:21:31.975Z,10.23
2022-12-17T09:24:17.587Z,10.70
2022-12-17T09:27:03.241Z,9.60
2022-12-17T09:32:24.524Z,11.50
2022-12-17T09:35:09.951Z,12.73
2022-12-17T09:37:55.449Z,11.38
2022-12-17T09:40:43.337Z,11.18
2022-12-17T09:43:41.593Z,12.48
2022-12-17T09:46:49.145Z,13.05
2022-12-17T09:49:44.728Z,11.57
2022-12-17T09:52:40.195Z,11.02
2022-12-17T09:55:48.928Z,10.52
2022-12-17T09:58:43.651Z,10.95
2022-12-17T10:01:38.180Z,13.15
2022-12-17T10:07:12.157Z,13.23
2022-12-17T10:09:57.767Z,12.10
2022-12-17T10:12:43.748Z,11.80
2022-12-17T10:15:33.782Z,11.68
2022-12-17T10:18:29.247Z,9.52
2022-12-17T10:21:25.309Z,11.68
2022-12-17T10:24:23.029Z,11.88
2022-12-17T10:27:08.550Z,11.52
2022-12-17T10:29:54.559Z,11.27
2022-12-17T10:32:44.556Z,12.90
2022-12-17T10:35:38.908Z,11.38
2022-12-17T10:42:10.827Z,12.32
2022-12-17T10:44:57.258Z,12.60
2022-12-17T10:47:47.564Z,12.50
2022-12-17T10:50:37.692Z,10.38
2022-12-17T10:53:37.647Z,11.80
2022-12-17T10:56:24.436Z,11.82
2022-12-17T10:59:12.441Z,11.32
2022-12-17T11:01:58.974Z,11.05
2022-12-17T11:04:55.940Z,12.00
2022-12-17T11:07:52.935Z,11.27
2022-12-17T11:10:44.136Z,11.75
2022-12-17T11:13:52.361Z,11.10
2022-12-17T11:16:52.242Z,11.88
2022-12-17T11:19:50.610Z,11.63
2022-12-17T11:23:10.823Z,12.07
2022-12-17T11:26:20.816Z,11.90
2022-12-17T11:29:06.496Z,13.35
2022-12-17T11:32:10.348Z,11.85
2022-12-17T11:35:11.440Z,11.52
2022-12-17T11:38:17.926Z,12.93
2022-12-17T11:41:12.085Z,12.55
2022-12-17T11:44:18.737Z,12.18
2022-12-17T11:47:17.609Z,12.35
2022-12-17T11:50:31.595Z,12.15
2022-12-17T11:53:35.302Z,12.38
2022-12-17T11:56:34.887Z,11.90
2022-12-17T12:00:06.747Z,12.50
2022-12-17T12:03:08.092Z,12.30
2022-12-17T12:06:14.363Z,11.95
2022-12-17T12:09:20.500Z,11.98
2022-12-17T12:12:08.985Z,12.68
2022-12-17T12:15:03.574Z,12.02
2022-12-17T12:18:01.030Z,12.27
2022-12-17T12:27:26.496Z,13.40
2022-12-17T12:30:40.771Z,11.07
2022-12-17T12:33:41.233Z,11.93
2022-12-17T13:04:08.068Z,10.88
2022-12-17T13:06:55.253Z,11.50
2022-12-17T13:09:32.493Z,12.07
2022-12-17T13:12:04.883Z,10.50
2022-12-17T13:14:59.900Z,11.32
2022-12-17T13:17:29.464Z,10.52
2022-12-17T13:19:56.456Z,10.82
2022-12-17T13:22:24.472Z,11.25
2022-12-17T13:24:54.478Z,11.88
2022-12-17T13:27:32.148Z,12.05
2022-12-17T13:30:14.652Z,12.52
2022-12-17T13:32:55.613Z,12.48
2022-12-17T13:35:50.021Z,11.93
2022-12-17T13:38:44.784Z,12.80
2022-12-17T13:44:36.483Z,13.20
2022-12-17T13:47:03.624Z,13.18
2022-12-17T13:49:31.950Z,13.73
2022-12-17T13:52:18.090Z,13.68
2022-12-17T13:54:45.212Z,12.98
2022-12-17T13:57:19.336Z,12.63
2022-12-17T14:02:27.383Z,12.13
2022-12-17T14:04:56.859Z,12.85
2022-12-17T14:07:27.679Z,13.30
2022-12-17T14:09:55.905Z,11.82
2022-12-17T14:12:26.719Z,13.52
2022-12-17T14:15:00.395Z,13.30
2022-12-17T14:17:35.917Z,12.23
2022-12-17T14:20:04.698Z,12.38
2022-12-17T14:22:37.450Z,11.70
2022-12-17T14:25:07.253Z,13.43
2022-12-17T14:27:36.774Z,12.45
2022-12-17T14:30:21.885Z,11.75
2022-12-17T14:32:49.497Z,12.25
2022-12-17T14:35:34.026Z,11.55
2022-12-17T14:38:01.203Z,12.80
2022-12-17T14:40:28.351Z,12.00
2022-12-17T14:43:00.277Z,11.60
2022-12-17T14:45:28.953Z,11.07
2022-12-17T14:48:02.305Z,11.20
2022-12-17T14:50:37.027Z,11.65
2022-12-17T14:53:24.432Z,11.13
2022-12-17T14:55:59.159Z,11.52
2022-12-17T14:58:27.803Z,11.35
2022-12-17T15:01:08.341Z,11.95
2022-12-17T15:03:41.217Z,11.90
2022-12-17T15:06:12.193Z,10.35
2022-12-17T15:08:45.295Z,11.02
2022-12-17T15:11:19.155Z,10.33
2022-12-17T15:13:54.614Z,11.98
2022-12-17T15:16:24.594Z,10.82
2022-12-17T15:19:01.050Z,11.43
2022-12-17T15:21:28.119Z,11.07
2022-12-17T15:24:02.857Z,10.35
2022-12-17T15:26:32.207Z,11.68
2022-12-17T15:29:00.916Z,10.02
2022-12-17T15:31:33.523Z,12.38
2022-12-17T15:34:05.337Z,12.40
2022-12-17T15:36:36.522Z,12.15
2022-12-17T15:39:06.470Z,11.55
2022-12-17T15:41:52.265Z,11.27
2022-12-17T15:44:24.259Z,10.38
2022-12-17T15:47:00.523Z,11.00
2022-12-17T15:49:27.721Z,10.48
2022-12-17T15:51:55.814Z,11.00
2022-12-17T15:54:29.117Z,10.65
2022-12-17T15:56:59.872Z,10.75
2022-12-17T15:59:27.307Z,10.80
2022-12-17T16:01:56.448Z,9.32
2022-12-17T16:04:25.450Z,9.88
2022-12-17T16:06:52.704Z,11.32
2022-12-17T16:09:20.036Z,10.60
2022-12-17T16:11:49.790Z,8.80
2022-12-17T16:14:16.909Z,11.02
2022-12-17T16:16:44.026Z,10.45
2022-12-17T16:19:11.120Z,10.18
2022-12-17T16:21:47.624Z,9.55
2022-12-17T16:24:15.370Z,10.48
2022-12-17T16:26:42.449Z,9.65
2022-12-17T16:29:12.039Z,9.55
2022-12-17T16:31:39.299Z,10.32
2022-12-17T16:34:12.876Z,9.43
2022-12-17T16:36:40.030Z,10.50
2022-12-17T16:39:07.518Z,9.88
2022-12-17T16:41:34.848Z,9.60
2022-12-17T16:44:01.980Z,10.32
2022-12-17T16:46:33.634Z,9.55
2022-12-17T16:49:09.626Z,10.32
2022-12-17T16:51:37.007Z,10.18
2022-12-17T16:54:09.423Z,9.85
2022-12-17T16:56:40.299Z,9.70
2022-12-17T16:59:08.892Z,10.25
2022-12-17T17:01:36.992Z,9.02
2022-12-17T17:04:08.389Z,11.05
2022-12-17T17:06:47.011Z,9.68
2022-12-17T17:09:14.961Z,10.38
2022-12-17T17:11:44.806Z,9.95
2022-12-17T17:14:15.452Z,8.95
2022-12-17T17:16:42.787Z,11.20
2022-12-17T17:19:09.847Z,10.50
2022-12-17T17:21:38.985Z,9.73
2022-12-17T17:24:18.467Z,9.50
2022-12-17T17:26:48.360Z,11.65
2022-12-17T17:29:15.485Z,9.55
2022-12-17T17:34:29.631Z,9.77
2022-12-17T17:36:56.660Z,10.75
2022-12-17T17:39:23.736Z,10.52
2022-12-17T17:41:50.778Z,10.65
2022-12-17T17:44:17.932Z,10.35
2022-12-17T17:46:45.511Z,10.15
2022-12-17T17:49:12.788Z,9.55
2022-12-17T17:54:29.811Z,10.40
2022-12-17T17:56:56.885Z,10.80
2022-12-17T17:59:29.363Z,10.05
2022-12-17T18:01:59.237Z,9.18
2022-12-17T18:04:26.467Z,9.38
2022-12-17T18:07:23.648Z,10.27
2022-12-17T18:09:41.021Z,9.60
2022-12-17T18:12:26.479Z,10.57
2022-12-17T18:17:40.688Z,9.90
2022-12-17T18:20:09.861Z,10.27
2022-12-17T18:22:38.099Z,9.38
2022-12-17T18:25:05.833Z,10.00
2022-12-17T18:27:33.924Z,9.10
2022-12-17T18:30:00.942Z,10.38
2022-12-17T18:32:27.974Z,9.70
2022-12-17T18:34:55.073Z,9.25
2022-12-17T18:37:22.141Z,8.68
2022-12-17T18:39:49.387Z,10.15
2022-12-17T18:42:36.356Z,10.32
2022-12-17T18:45:03.762Z,10.38
2022-12-17T18:47:32.605Z,8.73
2022-12-17T18:49:59.683Z,8.75
2022-12-17T18:52:28.394Z,9.38
2022-12-17T18:54:55.420Z,11.20
2022-12-17T18:57:22.642Z,8.77
2022-12-17T18:59:49.859Z,11.05
2022-12-17T19:02:17.180Z,8.65
2022-12-17T19:04:47.481Z,10.82
2022-12-17T19:07:21.895Z,9.90
2022-12-17T19:09:50.174Z,9.20
2022-12-17T19:12:17.218Z,10.07
2022-12-17T19:14:44.210Z,9.07
2022-12-17T19:17:13.996Z,9.13
2022-12-17T19:19:41.026Z,9.27
2022-12-17T19:22:08.622Z,10.80
2022-12-17T19:24:35.629Z,9.07
2022-12-17T19:27:02.700Z,8.77
2022-12-17T19:29:29.733Z,7.60
2022-12-17T19:31:58.443Z,8.20
2022-12-17T19:34:25.488Z,9.25
2022-12-17T19:36:52.557Z,10.10
2022-12-17T19:39:20.451Z,8.68
2022-12-17T19:41:50.486Z,8.35
2022-12-17T19:44:18.172Z,8.65
2022-12-17T19:46:45.445Z,9.10
2022-12-17T19:49:14.148Z,8.80
2022-12-17T19:51:44.383Z,8.65
2022-12-17T19:54:15.525Z,8.43
2022-12-17T19:56:45.127Z,7.68
2022-12-17T19:59:13.333Z,8.93
2022-12-17T20:01:43.655Z,8.35
2022-12-17T20:04:16.075Z,8.75
2022-12-17T20:06:44.348Z,8.38
2022-12-17T20:09:12.198Z,8.30
2022-12-17T20:11:40.112Z,8.88
2022-12-17T20:14:11.741Z,8.73
2022-12-17T20:16:42.657Z,7.88
2022-12-17T20:19:14.510Z,7.57
2022-12-17T20:21:41.775Z,8.27
2022-12-17T20:24:10.080Z,8.35
2022-12-17T20:26:37.202Z,7.10
2022-12-17T20:29:05.227Z,7.55
2022-12-17T20:31:33.188Z,7.70
2022-12-17T20:34:06.202Z,7.38
2022-12-17T20:36:33.833Z,7.00
2022-12-17T20:39:01.422Z,7.20
2022-12-17T20:41:31.284Z,7.35
2022-12-17T20:43:58.370Z,7.22
2022-12-17T20:46:26.549Z,7.22
2022-12-17T20:48:53.824Z,7.57
2022-12-17T20:51:24.737Z,7.65
2022-12-17T20:53:53.660Z,7.35
2022-12-17T20:56:24.212Z,7.20
2022-12-17T20:58:56.685Z,7.57
2022-12-17T21:01:27.514Z,7.05
2022-12-17T21:03:56.248Z,6.75
2022-12-17T21:06:27.752Z,6.90
2022-12-17T21:08:55.933Z,6.50
2022-12-17T21:11:25.599Z,7.03
2022-12-17T21:13:53.893Z,7.20
2022-12-17T21:16:31.728Z,7.15
2022-12-17T21:19:00.846Z,7.80
2022-12-17T21:21:32.881Z,7.18
2022-12-17T21:24:01.431Z,7.60
2022-12-17T21:26:31.775Z,7.22
2022-12-17T21:28:59.699Z,7.05
2022-12-17T21:31:40.848Z,6.70
2022-12-17T21:34:11.805Z,7.57
2022-12-17T21:36:39.434Z,7.88
2022-12-17T21:39:09.520Z,7.28
2022-12-17T21:41:44.048Z,7.60
2022-12-17T21:44:14.491Z,7.38
2022-12-17T21:46:43.009Z,7.63
2022-12-17T21:49:10.750Z,7.75
2022-12-17T21:51:38.250Z,7.80
2022-12-17T21:54:08.622Z,7.68
2022-12-17T21:56:36.678Z,7.25
2022-12-17T21:59:03.790Z,7.53
2022-12-17T22:01:34.246Z,6.43
2022-12-17T22:04:03.555Z,7.05
2022-12-17T22:06:36.369Z,8.23
2022-12-17T22:09:19.855Z,7.32
2022-12-17T22:12:20.602Z,6.93
2022-12-17T22:14:47.777Z,7.00
2022-12-17T22:17:14.829Z,7.40
2022-12-17T22:19:41.927Z,6.82
2022-12-17T22:22:10.040Z,6.70
2022-12-17T22:24:37.055Z,7.63
2022-12-17T22:27:05.125Z,6.88
2022-12-17T22:29:55.174Z,6.78
2022-12-17T22:32:40.650Z,8.00
2022-12-17T22:36:25.824Z,6.82
2022-12-17T22:40:37.924Z,7.20
2022-12-17T22:44:31.665Z,7.18
2022-12-17T22:44:42.957Z,6.57
2022-12-17T22:46:18.268Z,7.53
2022-12-17T22:48:45.657Z,7.72
2022-12-17T22:51:14.909Z,6.72
2022-12-17T22:53:46.552Z,7.10
2022-12-17T22:56:24.893Z,7.40
2022-12-17T22:59:00.899Z,7.18
2022-12-17T23:01:28.515Z,6.65
2022-12-17T23:03:59.449Z,7.05
2022-12-17T23:06:26.844Z,6.05
2022-12-17T23:08:54.741Z,7.20
2022-12-17T23:11:26.574Z,6.63
2022-12-17T23:13:55.023Z,7.30
2022-12-17T23:16:23.779Z,7.13
2022-12-17T23:18:52.131Z,6.78
2022-12-17T23:21:25.273Z,7.35
2022-12-17T23:23:53.700Z,7.73
2022-12-17T23:26:24.593Z,7.50
2022-12-17T23:28:58.361Z,7.43
2022-12-17T23:31:27.869Z,7.78
2022-12-17T23:33:55.377Z,7.57
2022-12-17T23:36:24.660Z,7.60
2022-12-17T23:38:53.039Z,7.72
2022-12-17T23:41:22.882Z,7.38
2022-12-17T23:43:50.698Z,7.57
2022-12-17T23:46:18.818Z,7.47
2022-12-17T23:48:48.361Z,7.45
2022-12-17T23:51:17.349Z,7.47
2022-12-17T23:53:44.784Z,7.68
2022-12-17T23:56:16.217Z,7.65
2022-12-17T23:58:44.306Z,7.22
